Kankakee, Illinois
Current Conditions -  °F | °C
As of 6:35 AM on Monday 22 Dec 2014 (Local Time) from KIKK Reporting Station
Overcast Overcast  
Wind Chill: -5°   Ceiling: 6000
Heat Index:   Visibility: 7mi
Dew Point: -2°   Wind: 10mph
Humidity: 90%   Direction: 110°ESE
Pressure: 29.94"   Gusts: NA
Location:  41.12°N, 87.86°W
Report Text: KIKK 221235Z AUTO 11009KT 7SM OVC060 00/M02 A2994 RMK AO2 T10021017
Loading
Personal Weather Stations






























Interactive Weather Map New forecast layout! Learn more

10-Day Weather Forecast

Advertisements
Track Severe Weather on mobile